createdAt,value
2023-02-09T00:00:29.655Z,24.40
2023-02-09T00:02:56.536Z,23.47
2023-02-09T00:05:23.382Z,22.77
2023-02-09T00:07:50.606Z,23.73
2023-02-09T00:10:17.735Z,22.37
2023-02-09T00:13:04.624Z,22.80
2023-02-09T00:15:31.500Z,22.17
2023-02-09T00:17:58.370Z,22.27
2023-02-09T00:20:25.233Z,23.53
2023-02-09T00:22:52.112Z,23.63
2023-02-09T00:25:19.180Z,23.67
2023-02-09T00:27:47.374Z,22.00
2023-02-09T00:30:14.501Z,24.70
2023-02-09T00:32:41.359Z,24.07
2023-02-09T00:35:08.473Z,22.77
2023-02-09T00:37:36.386Z,22.00
2023-02-09T00:40:04.846Z,21.27
2023-02-09T00:42:31.745Z,22.97
2023-02-09T00:44:59.962Z,23.67
2023-02-09T00:47:27.901Z,22.60
2023-02-09T00:49:54.885Z,22.67
2023-02-09T00:52:21.843Z,22.10
2023-02-09T00:54:48.783Z,20.87
2023-02-09T00:57:15.709Z,21.83
2023-02-09T00:59:42.619Z,21.70
2023-02-09T01:02:10.809Z,22.00
2023-02-09T01:04:38.591Z,20.70
2023-02-09T01:07:05.701Z,21.47
2023-02-09T01:09:32.818Z,21.33
2023-02-09T01:11:59.942Z,20.40
2023-02-09T01:14:27.060Z,20.60
2023-02-09T01:16:54.044Z,20.10
2023-02-09T01:19:22.308Z,20.53
2023-02-09T01:21:49.398Z,20.37
2023-02-09T01:24:16.509Z,20.77
2023-02-09T01:26:43.599Z,20.67
2023-02-09T01:29:13.880Z,20.33
2023-02-09T01:31:40.919Z,19.90
2023-02-09T01:34:07.945Z,19.50
2023-02-09T01:36:36.305Z,20.97
2023-02-09T01:39:04.219Z,19.73
2023-02-09T01:41:32.216Z,19.10
2023-02-09T01:44:01.870Z,18.70
2023-02-09T01:46:31.208Z,18.97
2023-02-09T01:49:07.195Z,19.70
2023-02-09T01:51:42.686Z,19.13
2023-02-09T01:54:14.689Z,19.10
2023-02-09T01:56:48.001Z,18.83
2023-02-09T01:59:16.961Z,18.60
2023-02-09T02:01:44.593Z,18.70
2023-02-09T02:04:12.083Z,17.93
2023-02-09T02:06:43.065Z,19.50
2023-02-09T02:09:13.345Z,18.53
2023-02-09T02:11:43.809Z,18.20
2023-02-09T02:14:29.135Z,19.10
2023-02-09T02:17:15.089Z,17.00
2023-02-09T02:20:14.973Z,17.77
2023-02-09T02:23:03.492Z,17.00
2023-02-09T02:26:20.381Z,17.47
2023-02-09T02:29:35.970Z,16.77
2023-02-09T02:32:32.950Z,16.60
2023-02-09T02:35:09.821Z,16.13
2023-02-09T02:37:54.754Z,15.53
2023-02-09T02:40:39.019Z,15.83
2023-02-09T02:43:19.104Z,16.07
2023-02-09T02:45:53.420Z,16.53
2023-02-09T02:48:33.255Z,15.33
2023-02-09T02:51:06.088Z,15.27
2023-02-09T02:53:37.697Z,16.23
2023-02-09T02:56:15.266Z,16.03
2023-02-09T02:58:47.475Z,16.63
2023-02-09T03:01:22.073Z,16.23
2023-02-09T03:03:52.818Z,15.50
2023-02-09T03:06:19.951Z,16.13
2023-02-09T03:08:53.545Z,15.30
2023-02-09T03:11:24.659Z,15.07
2023-02-09T03:14:11.580Z,14.20
2023-02-09T03:16:46.011Z,14.33
2023-02-09T03:19:32.936Z,13.67
2023-02-09T03:22:07.872Z,13.43
2023-02-09T03:24:42.623Z,13.53
2023-02-09T03:27:18.912Z,13.70
2023-02-09T03:29:49.588Z,14.00
2023-02-09T03:32:19.829Z,13.57
2023-02-09T03:34:48.779Z,13.67
2023-02-09T03:37:24.130Z,13.50
2023-02-09T03:39:51.037Z,12.70
2023-02-09T03:42:18.004Z,12.47
2023-02-09T03:44:44.941Z,13.67
2023-02-09T03:47:12.045Z,12.60
2023-02-09T03:49:41.446Z,12.17
2023-02-09T03:52:13.042Z,12.87
2023-02-09T03:54:40.883Z,12.77
2023-02-09T03:57:09.529Z,13.17
2023-02-09T03:59:37.688Z,12.90
2023-02-09T04:02:07.557Z,12.83
2023-02-09T04:04:35.391Z,12.87
2023-02-09T04:07:02.714Z,12.27
2023-02-09T04:09:31.071Z,12.07
2023-02-09T04:11:57.952Z,11.17
2023-02-09T04:14:24.985Z,11.13
2023-02-09T04:16:51.901Z,11.47
2023-02-09T04:19:18.945Z,10.73
2023-02-09T04:21:45.847Z,12.47
2023-02-09T04:24:13.094Z,11.57
2023-02-09T04:26:41.280Z,9.93
2023-02-09T04:29:08.184Z,10.83
2023-02-09T04:31:35.160Z,10.27
2023-02-09T04:34:02.480Z,10.33
2023-02-09T04:36:29.613Z,10.37
2023-02-09T04:38:56.597Z,9.17
2023-02-09T04:41:23.451Z,9.70
2023-02-09T04:43:54.235Z,9.30
2023-02-09T04:46:21.174Z,9.87
2023-02-09T04:48:48.063Z,9.00
2023-02-09T04:51:15.576Z,9.80
2023-02-09T04:53:42.515Z,9.30
2023-02-09T04:56:14.975Z,8.87
2023-02-09T04:59:01.168Z,8.87
2023-02-09T05:01:30.590Z,9.77
2023-02-09T05:03:57.882Z,8.20
2023-02-09T05:06:25.181Z,9.10
2023-02-09T05:08:53.126Z,7.83
2023-02-09T05:11:20.054Z,8.63
2023-02-09T05:13:47.017Z,7.67
2023-02-09T05:16:19.670Z,8.00
2023-02-09T05:18:50.181Z,8.40
2023-02-09T05:21:17.172Z,7.80
2023-02-09T05:23:44.042Z,8.27
2023-02-09T05:26:10.925Z,7.90
2023-02-09T05:28:37.869Z,7.37
2023-02-09T05:31:05.214Z,7.57
2023-02-09T05:33:32.121Z,7.23
2023-02-09T05:36:00.613Z,7.73
2023-02-09T05:38:27.755Z,8.13
2023-02-09T05:40:54.664Z,8.10
2023-02-09T05:43:21.601Z,7.70
2023-02-09T05:45:48.615Z,7.80
2023-02-09T05:48:15.568Z,7.87
2023-02-09T05:50:42.504Z,7.03
2023-02-09T05:53:10.783Z,7.37
2023-02-09T05:55:37.803Z,7.50
2023-02-09T05:58:05.518Z,7.10
2023-02-09T06:00:32.634Z,6.97
2023-02-09T06:02:59.642Z,7.17
2023-02-09T06:05:26.693Z,7.37
2023-02-09T06:07:53.826Z,7.57
2023-02-09T06:10:22.425Z,8.73
2023-02-09T06:12:49.524Z,7.50
2023-02-09T06:15:16.762Z,7.57
2023-02-09T06:17:43.961Z,7.60
2023-02-09T06:20:12.311Z,7.30
2023-02-09T06:22:39.239Z,8.10
2023-02-09T06:25:06.832Z,7.53
2023-02-09T06:27:35.687Z,7.90
2023-02-09T06:30:02.734Z,8.20
2023-02-09T06:32:30.940Z,7.53
2023-02-09T06:34:57.885Z,7.80
2023-02-09T06:37:24.944Z,7.00
2023-02-09T06:39:51.834Z,7.80
2023-02-09T06:42:18.898Z,8.20
2023-02-09T06:44:47.099Z,8.17
2023-02-09T06:47:13.962Z,7.13
2023-02-09T06:49:40.823Z,7.63
2023-02-09T06:52:07.890Z,7.43
2023-02-09T06:54:34.811Z,7.47
2023-02-09T06:57:01.676Z,7.43
2023-02-09T06:59:28.548Z,8.03
2023-02-09T07:01:56.845Z,8.17
2023-02-09T07:04:23.723Z,7.30
2023-02-09T07:06:50.639Z,7.77
2023-02-09T07:09:17.526Z,7.10
2023-02-09T07:11:44.460Z,7.30
2023-02-09T07:14:11.367Z,8.53
2023-02-09T07:16:38.298Z,8.87
2023-02-09T07:19:06.520Z,8.33
2023-02-09T07:21:33.432Z,8.27
2023-02-09T07:24:00.579Z,9.03
2023-02-09T07:26:28.052Z,8.13
2023-02-09T07:28:54.933Z,7.53
2023-02-09T07:31:21.982Z,8.10
2023-02-09T07:33:49.017Z,7.80
2023-02-09T07:36:17.746Z,8.07
2023-02-09T07:38:45.416Z,7.40
2023-02-09T07:41:17.053Z,8.63
2023-02-09T07:43:44.300Z,7.90
2023-02-09T07:46:15.224Z,8.30
2023-02-09T07:48:42.358Z,8.83
2023-02-09T07:51:14.144Z,7.87
2023-02-09T07:53:42.936Z,8.10
2023-02-09T07:56:09.913Z,8.93
2023-02-09T07:58:36.852Z,8.70
2023-02-09T08:01:06.650Z,7.97
2023-02-09T08:03:36.248Z,8.03
2023-02-09T08:06:10.599Z,8.13
2023-02-09T08:08:37.528Z,8.00
2023-02-09T08:11:05.975Z,9.53
2023-02-09T08:13:38.083Z,8.13
2023-02-09T08:16:10.313Z,12.00
2023-02-09T08:18:44.581Z,8.47
2023-02-09T08:21:15.627Z,9.00
2023-02-09T08:23:45.935Z,9.20
2023-02-09T08:26:15.049Z,8.43
2023-02-09T08:28:44.897Z,8.90
2023-02-09T08:31:14.516Z,9.77
2023-02-09T08:33:42.863Z,7.97
2023-02-09T08:36:11.397Z,8.57
2023-02-09T08:38:38.712Z,8.33
2023-02-09T08:41:08.420Z,9.00
2023-02-09T08:43:36.960Z,8.27
2023-02-09T08:46:05.531Z,10.83
2023-02-09T08:48:35.675Z,8.87
2023-02-09T08:51:03.351Z,9.67
2023-02-09T08:53:30.540Z,8.70
2023-02-09T08:55:57.949Z,9.17
2023-02-09T08:58:25.840Z,9.50
2023-02-09T09:00:59.972Z,8.90
2023-02-09T09:03:29.905Z,8.70
2023-02-09T09:05:57.901Z,9.03
2023-02-09T09:08:25.350Z,8.80
2023-02-09T09:10:52.425Z,10.23
2023-02-09T09:13:20.687Z,8.70
2023-02-09T09:15:48.100Z,8.77
2023-02-09T09:18:17.370Z,8.67
2023-02-09T09:20:44.392Z,9.23
2023-02-09T09:23:11.591Z,9.07
2023-02-09T09:25:38.831Z,9.40
2023-02-09T09:28:06.507Z,9.03
2023-02-09T09:30:34.314Z,9.90
2023-02-09T09:33:02.066Z,8.27
2023-02-09T09:35:31.208Z,8.70
2023-02-09T09:37:58.530Z,8.33
2023-02-09T09:40:30.133Z,9.60
2023-02-09T09:43:11.346Z,11.30
2023-02-09T09:45:39.431Z,9.73
2023-02-09T09:48:17.834Z,8.57
2023-02-09T09:50:47.234Z,9.20
2023-02-09T09:53:25.744Z,10.03
2023-02-09T09:55:59.208Z,8.90
2023-02-09T09:58:28.700Z,9.43
2023-02-09T10:00:56.428Z,9.53
2023-02-09T10:03:24.825Z,8.77
2023-02-09T10:05:55.799Z,9.17
2023-02-09T10:08:33.333Z,9.57
2023-02-09T10:11:05.642Z,9.63
2023-02-09T10:13:36.927Z,9.37
2023-02-09T10:16:15.411Z,9.20
2023-02-09T10:18:43.246Z,9.07
2023-02-09T10:21:15.971Z,9.23
2023-02-09T10:23:46.208Z,10.03
2023-02-09T10:26:25.639Z,8.93
2023-02-09T10:28:55.379Z,8.50
2023-02-09T10:31:47.146Z,10.03
2023-02-09T10:34:18.643Z,9.50
2023-02-09T10:36:53.846Z,8.90
2023-02-09T10:39:30.149Z,9.47
2023-02-09T10:42:17.505Z,8.93
2023-02-09T10:45:07.895Z,9.43
2023-02-09T10:47:38.521Z,10.03
2023-02-09T10:50:22.913Z,8.90
2023-02-09T10:53:00.306Z,8.30
2023-02-09T10:55:37.001Z,8.90
2023-02-09T10:58:18.878Z,9.13
2023-02-09T11:00:58.824Z,10.13
2023-02-09T11:03:26.125Z,8.53
2023-02-09T11:06:03.913Z,10.17
2023-02-09T11:08:51.655Z,9.37
2023-02-09T11:11:31.421Z,9.40
2023-02-09T11:13:59.997Z,8.77
2023-02-09T11:16:56.521Z,9.17
2023-02-09T11:20:19.282Z,9.17
2023-02-09T11:23:06.373Z,9.93
2023-02-09T11:25:41.283Z,9.97
2023-02-09T11:28:31.173Z,9.70
2023-02-09T11:31:41.025Z,10.10
2023-02-09T11:34:34.291Z,9.73
2023-02-09T11:37:17.746Z,9.60
2023-02-09T11:39:57.332Z,10.13
2023-02-09T11:42:46.311Z,9.73
2023-02-09T11:45:22.527Z,9.90
2023-02-09T11:48:03.464Z,9.40
2023-02-09T11:50:40.920Z,9.47
2023-02-09T11:53:22.005Z,9.30
2023-02-09T11:55:56.835Z,9.53
2023-02-09T11:58:42.669Z,10.27
2023-02-09T12:01:23.957Z,8.93
2023-02-09T12:04:03.754Z,8.93
2023-02-09T12:06:40.117Z,9.50
2023-02-09T12:09:29.884Z,9.63
2023-02-09T12:12:12.915Z,9.77
2023-02-09T12:15:03.279Z,9.67
2023-02-09T12:17:43.733Z,9.93
2023-02-09T12:20:31.369Z,9.47
2023-02-09T12:23:07.862Z,10.10
2023-02-09T12:25:52.958Z,9.10
2023-02-09T12:28:44.071Z,10.03
2023-02-09T12:31:23.867Z,10.10
2023-02-09T12:34:29.471Z,9.83
2023-02-09T12:37:17.357Z,10.30
2023-02-09T12:40:23.880Z,9.93
2023-02-09T12:43:25.225Z,10.03
2023-02-09T12:46:45.362Z,9.37
2023-02-09T12:49:32.855Z,9.77
2023-02-09T12:52:23.959Z,10.13
2023-02-09T12:54:53.231Z,10.57
2023-02-09T12:57:49.774Z,11.30
2023-02-09T13:00:51.639Z,10.87
2023-02-09T13:03:23.187Z,9.97
2023-02-09T13:05:53.903Z,11.53
2023-02-09T13:08:31.852Z,9.97
2023-02-09T13:11:06.375Z,10.70
2023-02-09T13:13:46.228Z,10.70
2023-02-09T13:16:55.160Z,9.70
2023-02-09T13:20:16.095Z,10.20
2023-02-09T13:23:03.291Z,9.23
2023-02-09T13:25:36.063Z,11.07
2023-02-09T13:28:14.681Z,11.23
2023-02-09T13:30:42.788Z,10.43
2023-02-09T13:33:27.712Z,11.00
2023-02-09T13:36:24.778Z,11.93
2023-02-09T13:39:21.090Z,10.63
2023-02-09T13:41:49.852Z,11.47
2023-02-09T13:44:24.990Z,10.40
2023-02-09T13:46:55.143Z,10.93
2023-02-09T13:49:23.434Z,10.50
2023-02-09T13:54:46.886Z,9.67
2023-02-09T13:57:34.350Z,10.23
2023-02-09T14:00:15.173Z,11.07
2023-02-09T14:02:47.993Z,9.57
2023-02-09T14:05:30.410Z,10.80
2023-02-09T14:07:58.008Z,10.30
2023-02-09T14:10:37.698Z,10.20
2023-02-09T14:13:19.446Z,9.70
2023-02-09T14:16:09.017Z,9.40
2023-02-09T14:18:51.638Z,9.67
2023-02-09T14:21:27.054Z,11.03
2023-02-09T14:24:19.821Z,9.97
2023-02-09T14:27:03.804Z,10.03
2023-02-09T14:29:36.661Z,11.27
2023-02-09T14:32:32.417Z,9.97
2023-02-09T14:35:17.222Z,9.57
2023-02-09T14:37:48.486Z,9.33
2023-02-09T14:40:30.880Z,11.17
2023-02-09T14:43:02.955Z,10.17
2023-02-09T14:45:38.029Z,10.97
2023-02-09T14:48:20.812Z,10.80
2023-02-09T14:50:49.297Z,10.50
2023-02-09T14:53:17.975Z,11.43
2023-02-09T14:55:48.401Z,12.27
2023-02-09T14:58:25.798Z,11.07
2023-02-09T15:00:56.849Z,10.63
2023-02-09T15:03:24.060Z,14.87
2023-02-09T15:05:57.341Z,11.57
2023-02-09T15:08:28.417Z,11.10
2023-02-09T15:10:59.296Z,12.40
2023-02-09T15:13:30.517Z,10.70
2023-02-09T15:15:57.624Z,9.80
2023-02-09T15:18:27.289Z,11.17
2023-02-09T15:20:54.690Z,11.87
2023-02-09T15:23:21.633Z,10.40
2023-02-09T15:25:48.933Z,11.37
2023-02-09T15:28:27.775Z,12.57
2023-02-09T15:30:57.521Z,11.03
2023-02-09T15:33:26.109Z,12.13
2023-02-09T15:35:53.867Z,11.67
2023-02-09T15:38:24.331Z,10.90
2023-02-09T15:41:10.339Z,10.83
2023-02-09T15:43:55.668Z,11.33
2023-02-09T15:46:42.682Z,12.27
2023-02-09T15:49:12.332Z,11.00
2023-02-09T15:51:41.028Z,11.10
2023-02-09T15:54:16.031Z,10.50
2023-02-09T15:56:47.424Z,11.83
2023-02-09T15:59:35.581Z,12.43
2023-02-09T16:02:42.382Z,11.67
2023-02-09T16:05:09.845Z,12.10
2023-02-09T16:07:37.430Z,11.97
2023-02-09T16:10:13.871Z,11.57
2023-02-09T16:12:40.921Z,11.50
2023-02-09T16:15:16.739Z,11.70
2023-02-09T16:17:47.266Z,13.27
2023-02-09T16:20:15.762Z,11.53
2023-02-09T16:22:47.586Z,13.17
2023-02-09T16:25:21.587Z,11.07
2023-02-09T16:27:50.249Z,10.80
2023-02-09T16:30:21.984Z,12.27
2023-02-09T16:32:50.407Z,11.70
2023-02-09T16:35:20.369Z,11.63
2023-02-09T16:37:51.019Z,10.70
2023-02-09T16:40:31.856Z,11.90
2023-02-09T16:43:01.567Z,13.17
2023-02-09T16:45:34.721Z,11.90
2023-02-09T16:48:03.712Z,12.17
2023-02-09T16:50:35.522Z,11.17
2023-02-09T16:53:15.378Z,11.30
2023-02-09T16:55:42.934Z,11.23
2023-02-09T16:58:13.911Z,12.50
2023-02-09T17:00:44.295Z,11.37
2023-02-09T17:03:17.210Z,11.97
2023-02-09T17:05:48.411Z,12.23
2023-02-09T17:08:18.963Z,11.20
2023-02-09T17:10:47.598Z,13.37
2023-02-09T17:13:20.604Z,11.60
2023-02-09T17:15:51.056Z,11.93
2023-02-09T17:18:23.331Z,11.93
2023-02-09T17:20:54.986Z,12.27
2023-02-09T17:23:25.796Z,12.23
2023-02-09T17:25:55.214Z,13.23
2023-02-09T17:28:23.459Z,12.47
2023-02-09T17:30:51.828Z,12.37
2023-02-09T17:33:24.310Z,12.30
2023-02-09T17:36:23.837Z,12.00
2023-02-09T17:38:41.028Z,12.30
2023-02-09T17:41:16.584Z,10.73
2023-02-09T17:43:44.028Z,12.63
2023-02-09T17:46:12.322Z,13.30
2023-02-09T17:48:40.718Z,12.20
2023-02-09T17:51:20.497Z,12.17
2023-02-09T17:53:48.785Z,12.23
2023-02-09T17:56:16.871Z,12.27
2023-02-09T17:58:44.331Z,12.73
2023-02-09T18:01:26.098Z,13.77
2023-02-09T18:03:58.392Z,13.27
2023-02-09T18:06:33.588Z,12.23
2023-02-09T18:09:02.006Z,13.03
2023-02-09T18:11:54.362Z,12.40
2023-02-09T18:14:23.970Z,11.63
2023-02-09T18:16:51.917Z,11.83
2023-02-09T18:19:20.718Z,12.90
2023-02-09T18:21:50.152Z,12.70
2023-02-09T18:24:18.031Z,12.10
2023-02-09T18:26:47.607Z,12.60
2023-02-09T18:29:14.752Z,12.60
2023-02-09T18:31:41.735Z,12.93
2023-02-09T18:34:08.864Z,13.03
2023-02-09T18:36:37.318Z,13.30
2023-02-09T18:39:04.382Z,13.43
2023-02-09T18:41:31.465Z,14.43
2023-02-09T18:43:58.398Z,12.90
2023-02-09T18:46:26.928Z,14.27
2023-02-09T18:48:54.574Z,13.70
2023-02-09T18:51:22.035Z,14.43
2023-02-09T18:53:51.201Z,14.97
2023-02-09T18:56:20.802Z,14.83
2023-02-09T18:58:49.603Z,15.07
2023-02-09T19:01:21.796Z,13.67
2023-02-09T19:03:50.187Z,14.23
2023-02-09T19:06:20.388Z,14.37
2023-02-09T19:08:49.983Z,15.80
2023-02-09T19:11:21.998Z,14.50
2023-02-09T19:14:08.221Z,15.13
2023-02-09T19:16:36.415Z,14.43
2023-02-09T19:19:03.893Z,16.23
2023-02-09T19:21:31.752Z,15.23
2023-02-09T19:23:58.886Z,14.80
2023-02-09T19:26:27.108Z,14.60
2023-02-09T19:28:56.920Z,16.13
2023-02-09T19:31:24.815Z,15.87
2023-02-09T19:33:56.044Z,16.00
2023-02-09T19:36:24.168Z,15.40
2023-02-09T19:38:51.112Z,16.67
2023-02-09T19:41:18.266Z,16.03
2023-02-09T19:43:46.543Z,15.73
2023-02-09T19:46:13.447Z,15.93
2023-02-09T19:48:41.242Z,17.77
2023-02-09T19:51:08.673Z,16.70
2023-02-09T19:53:35.840Z,16.23
2023-02-09T19:56:02.834Z,15.97
2023-02-09T19:58:30.169Z,14.77
2023-02-09T20:00:58.560Z,17.20
2023-02-09T20:03:25.724Z,16.53
2023-02-09T20:05:52.818Z,16.20
2023-02-09T20:08:20.246Z,17.17
2023-02-09T20:10:47.606Z,17.77
2023-02-09T20:13:15.599Z,16.40
2023-02-09T20:15:44.035Z,16.43
2023-02-09T20:18:14.874Z,18.70
2023-02-09T20:20:44.049Z,18.27
2023-02-09T20:23:11.004Z,17.47
2023-02-09T20:25:41.087Z,17.80
2023-02-09T20:28:08.184Z,18.27
2023-02-09T20:30:35.320Z,17.93
2023-02-09T20:33:02.274Z,18.23
2023-02-09T20:35:30.473Z,19.23
2023-02-09T20:37:57.337Z,18.20
2023-02-09T20:40:24.299Z,17.67
2023-02-09T20:43:09.557Z,17.77
2023-02-09T20:45:55.131Z,19.10
2023-02-09T20:48:22.077Z,17.90
2023-02-09T20:50:50.308Z,18.37
2023-02-09T20:53:17.381Z,17.27
2023-02-09T20:55:44.437Z,19.13
2023-02-09T20:58:13.455Z,17.93
2023-02-09T21:00:41.360Z,19.60
2023-02-09T21:03:08.918Z,20.03
2023-02-09T21:05:36.008Z,19.17
2023-02-09T21:08:06.395Z,19.97
2023-02-09T21:10:36.219Z,20.93
2023-02-09T21:13:04.913Z,18.47
2023-02-09T21:15:32.300Z,21.33
2023-02-09T21:17:59.246Z,21.13
2023-02-09T21:20:26.235Z,21.23
2023-02-09T21:22:53.550Z,21.90
2023-02-09T21:25:21.797Z,19.97
2023-02-09T21:27:48.761Z,20.50
2023-02-09T21:30:16.464Z,20.60
2023-02-09T21:32:43.503Z,20.10
2023-02-09T21:35:10.874Z,19.63
2023-02-09T21:37:38.759Z,21.33
2023-02-09T21:40:06.954Z,20.10
2023-02-09T21:42:36.800Z,19.80
2023-02-09T21:45:04.304Z,20.20
2023-02-09T21:47:35.401Z,20.97
2023-02-09T21:50:03.402Z,20.97
2023-02-09T21:52:31.470Z,21.23
2023-02-09T21:54:58.490Z,20.17
2023-02-09T21:57:26.180Z,20.97
2023-02-09T21:59:54.433Z,20.67
2023-02-09T22:02:21.986Z,20.00
2023-02-09T22:04:50.076Z,20.43
2023-02-09T22:07:16.997Z,20.47
2023-02-09T22:09:43.932Z,19.93
2023-02-09T22:12:10.852Z,19.90
2023-02-09T22:14:37.801Z,19.47
2023-02-09T22:17:06.004Z,18.63
2023-02-09T22:19:32.885Z,19.03
2023-02-09T22:22:01.003Z,17.90
2023-02-09T22:24:28.057Z,18.50
2023-02-09T22:26:54.894Z,18.77
2023-02-09T22:29:21.899Z,18.43
2023-02-09T22:31:48.746Z,17.83
2023-02-09T22:34:17.000Z,18.93
2023-02-09T22:36:43.872Z,19.60
2023-02-09T22:39:10.827Z,19.27
2023-02-09T22:41:37.761Z,18.37
2023-02-09T22:44:07.874Z,17.40
2023-02-09T22:46:38.018Z,17.63
2023-02-09T22:49:08.984Z,17.97
2023-02-09T22:51:37.235Z,17.80
2023-02-09T22:54:05.743Z,19.37
2023-02-09T22:56:36.583Z,19.00
2023-02-09T22:59:03.660Z,18.30
2023-02-09T23:01:31.162Z,17.47
2023-02-09T23:03:58.808Z,18.80
2023-02-09T23:06:28.477Z,17.93
2023-02-09T23:08:59.302Z,18.17
2023-02-09T23:11:27.653Z,19.23
2023-02-09T23:14:08.543Z,16.87
2023-02-09T23:16:38.849Z,17.10
2023-02-09T23:19:10.828Z,19.13
2023-02-09T23:21:40.971Z,17.53
2023-02-09T23:24:10.498Z,17.47
2023-02-09T23:26:38.122Z,18.37
2023-02-09T23:29:09.386Z,18.53
2023-02-09T23:31:36.887Z,19.03
2023-02-09T23:34:04.055Z,18.03
2023-02-09T23:36:33.967Z,18.37
2023-02-09T23:39:04.659Z,18.93
2023-02-09T23:41:34.717Z,17.60
2023-02-09T23:44:02.228Z,18.30
2023-02-09T23:46:29.595Z,17.57
2023-02-09T23:48:58.176Z,17.73
2023-02-09T23:51:28.468Z,17.43
2023-02-09T23:53:57.320Z,16.60
2023-02-09T23:56:25.606Z,17.23
2023-02-09T23:58:55.305Z,17.60
